M I D A S
Marine Information and Data Acquisition System
Tripno 1641 of the Zeeleeuw from 2009-02-06 08:09:41 to 2009-02-06 17:33:33
Back to CruiseResearch ActivitiesStationsMapUnderway DataData graphs

EquipmentUnitsComment
TimeDGPSUTC
LatitudeDGPSDM.mWGS84
LongitudeDGPSDM.mWGS84
HeadingGyrodeg 
SOGDGPSknotsSpeed over ground
COGDGPSdegCourse over ground
DepthEcho soundermeters200 kHz
Missing or incorrect values are displayed as -999
Navigation data collected by the RV Zeeleeuw from 2009-02-06 08:03:12 to 2009-02-06 17:39:24
Time Latitude Longitude Heading SOG COG Depth
2009-02-06 08:04:18 51°13.681 2°55.901 114.4 3.3 297 -999
2009-02-06 08:05:18 51°13.699 2°55.809 96.6 4.1 279 -999
2009-02-06 08:06:18 51°13.702 2°55.737 71.2 0.7 4 13.8
2009-02-06 08:07:18 51°13.717 2°55.749 359.1 0.9 186 13.9
2009-02-06 08:08:18 51°13.731 2°55.732 329.6 3.6 326 14
2009-02-06 08:09:18 51°13.818 2°55.645 330.5 7.9 331 12.5
2009-02-06 08:10:18 51°13.95 2°55.545 335.8 9.2 336 12.4
2009-02-06 08:11:18 51°14.094 2°55.44 336.4 9.6 335 12.5
2009-02-06 08:12:18 51°14.229 2°55.305 323.3 9.5 319 12.6
2009-02-06 08:13:18 51°14.34 2°55.115 311.6 10.4 309 12.6
2009-02-06 08:14:18 51°14.451 2°54.895 302.7 10.8 307 13.2
2009-02-06 08:15:18 51°14.55 2°54.654 295.8 11.1 300 12.9
2009-02-06 08:16:18 51°14.648 2°54.393 296.5 11.7 301 12.9
2009-02-06 08:17:18 51°14.747 2°54.125 294.6 11.8 300 12.7
2009-02-06 08:18:18 51°14.839 2°53.852 294.1 11.7 299 12
2009-02-06 08:19:18 51°14.942 2°53.585 297.4 11.8 301 12.2
2009-02-06 08:20:18 51°15.042 2°53.316 297.2 11.7 300 12.4
2009-02-06 08:21:18 51°15.138 2°53.045 293.8 11.7 297 12.7
2009-02-06 08:22:18 51°15.234 2°52.772 295 11.8 298 13.3
2009-02-06 08:23:18 51°15.327 2°52.496 294.6 11.8 298 13.6
2009-02-06 08:24:18 51°15.428 2°52.225 297.8 11.9 302 14
2009-02-06 08:25:18 51°15.525 2°51.951 294.2 11.8 298 14.5
2009-02-06 08:26:18 51°15.623 2°51.678 295.3 11.8 299 15
2009-02-06 08:27:18 51°15.716 2°51.4 294.8 11.8 298 15.3
2009-02-06 08:28:18 51°15.805 2°51.12 292.2 11.8 295 15.3
2009-02-06 08:29:18 51°15.885 2°50.833 290.4 11.8 293 15.4
2009-02-06 08:30:18 51°15.958 2°50.546 287 11.6 291 14.6
2009-02-06 08:31:18 51°16.027 2°50.262 286.6 11.4 289 12.6
2009-02-06 08:32:18 51°16.063 2°49.964 275.1 11.4 275 13
2009-02-06 08:33:18 51°16.072 2°49.66 271.7 11.6 273 13.5
2009-02-06 08:34:18 51°16.09 2°49.356 275.8 11.6 278 14.2
2009-02-06 08:35:18 51°16.12 2°49.051 279.3 11.7 280 15.2
2009-02-06 08:36:18 51°16.148 2°48.745 275.5 11.6 277 17.1
2009-02-06 08:37:18 51°16.172 2°48.439 273.8 11.6 276 18
2009-02-06 08:38:18 51°16.192 2°48.133 273.5 11.5 276 18.1
2009-02-06 08:39:18 51°16.21 2°47.829 273.9 11.5 276 17.4
2009-02-06 08:40:18 51°16.228 2°47.526 273.5 11.4 276 16.9
2009-02-06 08:41:18 51°16.247 2°47.227 273.3 11.3 276 15.8
2009-02-06 08:42:18 51°16.259 2°46.927 270.4 11.3 273 14.3
2009-02-06 08:43:18 51°16.266 2°46.626 271.7 11.4 275 13.2
2009-02-06 08:44:18 51°16.278 2°46.326 271.6 11.3 274 12.6
2009-02-06 08:45:17 51°16.299 2°46.03 275.3 11.5 277 12.6
2009-02-06 08:46:17 51°16.333 2°45.731 277.8 11.4 280 12.8
2009-02-06 08:47:17 51°16.369 2°45.432 278.4 11.5 281 13.4
2009-02-06 08:48:17 51°16.408 2°45.132 278.6 11.5 281 13.9
2009-02-06 08:49:18 51°16.447 2°44.83 278.9 11.3 282 12.9
2009-02-06 08:50:17 51°16.487 2°44.537 281.7 11.6 284 14.5
2009-02-06 08:51:17 51°16.542 2°44.242 286.3 11.7 291 16.2
2009-02-06 08:52:17 51°16.621 2°43.956 292.9 11.9 296 17.2
2009-02-06 08:53:17 51°16.709 2°43.673 290.9 11.8 294 17.1
2009-02-06 08:54:17 51°16.785 2°43.388 289.9 11.6 293 15.6
2009-02-06 08:55:17 51°16.861 2°43.105 290.3 11.6 294 14.7
2009-02-06 08:56:17 51°16.942 2°42.828 293.8 11.5 297 12.3
2009-02-06 08:57:17 51°17.027 2°42.556 293.5 11.4 295 12
2009-02-06 08:58:17 51°17.11 2°42.28 290.6 11.7 296 17.7
2009-02-06 08:59:17 51°17.198 2°41.999 292.1 11.9 297 24.8
2009-02-06 09:00:17 51°17.282 2°41.713 289 11.7 292 26.6
2009-02-06 09:01:17 51°17.334 2°41.417 276.2 11.6 282 26.5
2009-02-06 09:02:17 51°17.364 2°41.113 275.1 11.6 279 26.1
2009-02-06 09:03:17 51°17.398 2°40.808 275.6 11.7 281 24.7
2009-02-06 09:04:17 51°17.431 2°40.505 277.3 11.5 279 21.6
2009-02-06 09:05:17 51°17.458 2°40.205 278.7 11.4 279 17.7
2009-02-06 09:06:17 51°17.496 2°39.91 279.4 11.3 281 15.8
2009-02-06 09:07:17 51°17.53 2°39.616 278.4 11.2 281 16.3
2009-02-06 09:08:17 51°17.566 2°39.324 275.6 11.2 281 20.7
2009-02-06 09:09:17 51°17.601 2°39.031 275.6 11.3 280 27.9
2009-02-06 09:10:17 51°17.635 2°38.735 275.7 11.4 282 29.5
2009-02-06 09:11:17 51°17.671 2°38.438 276.4 11.4 281 29.7
2009-02-06 09:12:17 51°17.709 2°38.141 277.7 11.4 282 29.4
2009-02-06 09:13:17 51°17.756 2°37.845 279.2 11.6 285 29.9
2009-02-06 09:14:17 51°17.803 2°37.551 279.4 11.5 284 28.8
2009-02-06 09:15:17 51°17.852 2°37.253 280.1 11.7 285 26.6
2009-02-06 09:16:17 51°17.9 2°36.952 279 11.6 284 24
2009-02-06 09:17:17 51°17.941 2°36.651 280.9 11.7 284 20
2009-02-06 09:18:17 51°17.99 2°36.353 282.1 11.5 285 15.9
2009-02-06 09:19:17 51°18.033 2°36.058 279.6 11.4 284 14.7
2009-02-06 09:20:17 51°18.075 2°35.761 278.3 11.5 281 17.4
2009-02-06 09:21:17 51°18.139 2°35.472 293.6 11.7 298 25.3
2009-02-06 09:22:17 51°18.247 2°35.209 300.2 11.8 305 31.4
2009-02-06 09:23:17 51°18.361 2°34.953 298.9 11.8 305 29.1
2009-02-06 09:24:17 51°18.468 2°34.689 297.8 11.9 304 21.7
2009-02-06 09:25:17 51°18.577 2°34.425 298.5 11.9 303 25.6
2009-02-06 09:26:17 51°18.677 2°34.155 292.6 11.7 294 22.5
2009-02-06 09:27:17 51°18.733 2°33.863 276.8 11.4 281 18.8
2009-02-06 09:28:17 51°18.762 2°33.564 275.7 11.5 280 21.4
2009-02-06 09:29:17 51°18.793 2°33.262 274.2 11.5 278 27.3
2009-02-06 09:30:17 51°18.823 2°32.96 274.6 11.5 280 28.1
2009-02-06 09:31:17 51°18.86 2°32.659 276 11.5 278 30.9
2009-02-06 09:32:17 51°18.879 2°32.355 270 11.4 273 32.9
2009-02-06 09:33:17 51°18.897 2°32.052 271.3 11.5 276 32.3
2009-02-06 09:34:17 51°18.918 2°31.75 271.1 11.4 275 32.9
2009-02-06 09:35:17 51°18.939 2°31.447 272.4 11.5 276 32.5
2009-02-06 09:36:17 51°18.96 2°31.14 271 11.5 274 32.4
2009-02-06 09:37:17 51°18.976 2°30.834 270.4 11.5 275 32.4
2009-02-06 09:38:17 51°18.993 2°30.528 271.7 11.5 275 30
2009-02-06 09:39:17 51°19.009 2°30.224 274.2 11.5 278 23.5
2009-02-06 09:40:17 51°19.027 2°29.924 273.9 11.2 277 16.7
2009-02-06 09:41:17 51°19.043 2°29.632 271.6 11 274 14.4
2009-02-06 09:42:17 51°19.061 2°29.343 274.2 10.8 274 15.8
2009-02-06 09:43:17 51°19.067 2°29.057 264 10.8 262 21.1
2009-02-06 09:44:17 51°19.017 2°28.781 245.4 10.8 246 30.4
2009-02-06 09:45:17 51°18.925 2°28.531 235.3 11 240 33.5
2009-02-06 09:46:17 51°18.817 2°28.299 230.1 11 227 34
2009-02-06 09:47:17 51°18.699 2°28.077 229 10.9 229 34
2009-02-06 09:48:17 51°18.582 2°27.856 230.7 10.8 233 34.2
2009-02-06 09:49:17 51°18.471 2°27.628 228.8 10.8 230 34.3
2009-02-06 09:50:17 51°18.353 2°27.411 227.8 10.8 229 34.5
2009-02-06 09:51:17 51°18.232 2°27.199 226.6 10.9 228 34.1
2009-02-06 09:52:17 51°18.111 2°26.991 228.5 10.8 230 34.6
2009-02-06 09:53:17 51°18.006 2°26.762 231.6 10.7 232 34.5
2009-02-06 09:54:17 51°17.894 2°26.54 229.9 10.7 231 34.9
2009-02-06 09:55:17 51°17.783 2°26.318 231.4 10.4 233 34.4
2009-02-06 09:56:17 51°17.683 2°26.117 228 9.3 226 34.5
2009-02-06 09:57:17 51°17.583 2°25.929 232.5 9.3 236 34.6
2009-02-06 09:58:17 51°17.49 2°25.731 231.5 9.2 230 35.4
2009-02-06 09:59:18 51°17.391 2°25.543 227.9 8.5 230 35.1
2009-02-06 10:00:18 51°17.304 2°25.383 228.3 7.1 231 35.5
2009-02-06 10:01:18 51°17.249 2°25.284 224.6 3.7 228 36.1
2009-02-06 10:02:18 51°17.223 2°25.228 223.3 1.9 232 36.6
2009-02-06 10:03:18 51°17.201 2°25.191 217.6 2.3 228 36.5
2009-02-06 10:04:18 51°17.178 2°25.139 217.6 1.9 209 37.4
2009-02-06 10:05:18 51°17.163 2°25.123 220.4 0.7 250 33.9
2009-02-06 10:06:18 51°17.163 2°25.113 223.9 0.3 312 36.9
2009-02-06 10:07:18 51°17.168 2°25.108 222.2 0.5 335 37.7
2009-02-06 10:08:18 51°17.174 2°25.107 219.4 0.4 8 37.6
2009-02-06 10:09:18 51°17.18 2°25.113 204.4 0.4 55 37.5
2009-02-06 10:10:18 51°17.18 2°25.129 185 0.7 109 37.3
2009-02-06 10:11:18 51°17.176 2°25.135 217.9 0.2 289 37.1
2009-02-06 10:12:18 51°17.176 2°25.123 215.9 0.4 222 37.2
2009-02-06 10:13:18 51°17.169 2°25.121 211.9 0.3 208 34.5
2009-02-06 10:14:18 51°17.166 2°25.113 215.8 0.1 259 37.2
2009-02-06 10:15:18 51°17.17 2°25.114 212.8 0.3 11 37.3
2009-02-06 10:16:18 51°17.171 2°25.122 198.3 0.4 128 34.7
2009-02-06 10:17:18 51°17.161 2°25.119 211.5 0.8 213 35
2009-02-06 10:18:18 51°17.154 2°25.11 214.4 0.2 276 37.3
2009-02-06 10:19:18 51°17.159 2°25.111 217.3 0.5 20 37.5
2009-02-06 10:20:18 51°17.171 2°25.12 217.9 0.9 29 35.2
2009-02-06 10:21:18 51°17.187 2°25.132 219.1 1.1 26 37.2
2009-02-06 10:22:18 51°17.201 2°25.143 206.5 0.6 40 37.2
2009-02-06 10:23:18 51°17.192 2°25.149 197.7 1.5 183 37.1
2009-02-06 10:24:18 51°17.161 2°25.122 217.7 2.5 227 33.5
2009-02-06 10:25:18 51°17.143 2°25.093 218.7 0.9 227 37.8
2009-02-06 10:26:18 51°17.14 2°25.084 217.6 0.2 306 38.2
2009-02-06 10:27:18 51°17.147 2°25.084 219.2 0.7 11 38.4
2009-02-06 10:28:18 51°17.165 2°25.098 228.5 1.7 33 37.7
2009-02-06 10:29:18 51°17.191 2°25.119 240.7 1 357 37.2
2009-02-06 10:30:18 51°17.193 2°25.116 203.9 0.3 151 37.2
2009-02-06 10:31:18 51°17.185 2°25.117 210.2 0.4 209 37.4
2009-02-06 10:32:18 51°17.174 2°25.118 192.6 1.1 170 37.1
2009-02-06 10:33:18 51°17.162 2°25.109 220.2 0.9 210 37.3
2009-02-06 10:34:18 51°17.16 2°25.109 212.9 0.3 10 37.5
2009-02-06 10:35:18 51°17.165 2°25.109 221.6 0.4 13 37.2
2009-02-06 10:36:18 51°17.173 2°25.115 210.9 0.4 39 37.3
2009-02-06 10:37:18 51°17.165 2°25.123 192.9 1.1 172 33.4
2009-02-06 10:38:18 51°17.142 2°25.113 216.3 1.5 220 37.1
2009-02-06 10:39:18 51°17.131 2°25.084 220.2 0.9 225 37.7
2009-02-06 10:40:18 51°17.118 2°25.085 186.4 1 146 37.5
2009-02-06 10:41:18 51°17.102 2°25.105 187.3 0.8 133 37.2
2009-02-06 10:42:18 51°17.104 2°25.11 223.8 0.8 262 37.5
2009-02-06 10:43:18 51°17.126 2°25.064 298.9 3.1 331 37
2009-02-06 10:44:18 51°17.183 2°25.059 358.2 2.7 19 37.9
2009-02-06 10:45:19 51°17.191 2°25.07 20.6 0.3 71 -999
2009-02-06 10:46:18 51°17.216 2°25.092 35 1.5 25 37.1
2009-02-06 10:47:19 51°17.212 2°25.087 21.6 1.4 191 -999
2009-02-06 10:48:18 51°17.183 2°25.093 357.6 1.7 154 -999
2009-02-06 10:49:18 51°17.167 2°25.119 343.5 1.4 117 34.8
2009-02-06 10:50:18 51°17.162 2°25.15 336.6 1.2 93 36
2009-02-06 10:51:18 51°17.166 2°25.18 327.5 1.4 66 36.1
2009-02-06 10:52:18 51°17.178 2°25.211 315.2 1.5 51 35.7
2009-02-06 10:53:18 51°17.195 2°25.24 304.6 1.5 42 38.6
2009-02-06 10:54:18 51°17.218 2°25.267 294.2 1.6 32 35.9
2009-02-06 10:55:18 51°17.241 2°25.28 272.1 1.4 14 35.7
2009-02-06 10:56:18 51°17.259 2°25.277 245.2 0.9 345 35.7
2009-02-06 10:57:18 51°17.273 2°25.276 233.3 0.8 8 35.6
2009-02-06 10:58:18 51°17.29 2°25.282 232.2 1.1 13 35.5
2009-02-06 10:59:18 51°17.307 2°25.289 226.7 0.9 11 35.5
2009-02-06 11:00:18 51°17.31 2°25.281 221.4 0.9 242 35.6
2009-02-06 11:01:18 51°17.292 2°25.259 209.1 1.8 214 35.7
2009-02-06 11:02:18 51°17.265 2°25.228 211.5 2 205 36.1
2009-02-06 11:03:18 51°17.237 2°25.201 224.8 1.9 238 36.2
2009-02-06 11:04:18 51°17.214 2°25.176 200.4 1.7 190 36.3
2009-02-06 11:05:18 51°17.191 2°25.153 228 1.8 232 36.5
2009-02-06 11:06:18 51°17.169 2°25.136 203.9 1.2 206 36.4
2009-02-06 11:07:18 51°17.154 2°25.102 229.3 2 241 36.5
2009-02-06 11:08:18 51°17.14 2°25.064 224.6 1.1 242 37.7
2009-02-06 11:09:18 51°17.135 2°25.05 219.5 0.2 249 37.6
2009-02-06 11:10:18 51°17.139 2°25.046 218.5 0.3 8 37.8
2009-02-06 11:11:18 51°17.148 2°25.047 222.5 0.8 2 37.7
2009-02-06 11:12:18 51°17.161 2°25.052 225.1 0.9 19 38.1
2009-02-06 11:13:18 51°17.176 2°25.059 226.9 1.1 20 37.7
2009-02-06 11:14:18 51°17.194 2°25.068 232.5 1.1 20 37.4
2009-02-06 11:15:18 51°17.213 2°25.077 235.4 1.2 20 36.9
2009-02-06 11:16:18 51°17.234 2°25.088 237.3 1.3 17 36.5
2009-02-06 11:17:18 51°17.254 2°25.1 239.5 1.4 17 36.8
2009-02-06 11:18:18 51°17.275 2°25.112 240.6 1.3 22 36.6
2009-02-06 11:19:18 51°17.297 2°25.124 240.4 1.4 19 36.6
2009-02-06 11:20:18 51°17.319 2°25.136 241.6 1.4 17 36.6
2009-02-06 11:21:18 51°17.341 2°25.149 239.7 1.5 17 36.5
2009-02-06 11:22:18 51°17.363 2°25.163 242 1.4 25 36
2009-02-06 11:23:18 51°17.385 2°25.176 245.3 1.5 17 36.4
2009-02-06 11:24:18 51°17.407 2°25.19 247.6 1.5 20 35.6
2009-02-06 11:25:18 51°17.429 2°25.203 251.9 1.5 20 35.5
2009-02-06 11:26:18 51°17.451 2°25.218 254.3 1.5 21 35.8
2009-02-06 11:27:18 51°17.472 2°25.232 257.1 1.4 21 35.1
2009-02-06 11:28:18 51°17.494 2°25.246 260.4 1.4 20 34.8
2009-02-06 11:29:18 51°17.515 2°25.259 261 1.4 22 35.4
2009-02-06 11:30:18 51°17.536 2°25.268 256.5 0.8 337 34.9
2009-02-06 11:31:18 51°17.528 2°25.249 204.2 2.1 194 35.6
2009-02-06 11:32:18 51°17.464 2°25.237 192.6 5 189 34.9
2009-02-06 11:33:18 51°17.381 2°25.218 191.2 4.7 184 35.4
2009-02-06 11:34:18 51°17.32 2°25.223 183.4 2.9 173 35.8
2009-02-06 11:35:18 51°17.281 2°25.228 196.2 1.9 192 35.8
2009-02-06 11:36:18 51°17.268 2°25.208 228.2 0.9 258 35.8
2009-02-06 11:37:18 51°17.27 2°25.19 232.1 0.5 303 35.6
2009-02-06 11:38:18 51°17.275 2°25.177 235.3 1 278 35.8
2009-02-06 11:39:18 51°17.294 2°25.126 294.9 3.5 321 36.3
2009-02-06 11:40:18 51°17.375 2°25.088 352.8 7 359 36.7
2009-02-06 11:41:18 51°17.522 2°25.118 9.3 10 8 35.8
2009-02-06 11:42:18 51°17.7 2°25.142 2.3 11.3 4 35.3
2009-02-06 11:43:18 51°17.902 2°25.164 2.8 13.1 5 34.1
2009-02-06 11:44:18 51°18.12 2°25.196 2.4 13 3 32.8
2009-02-06 11:45:18 51°18.336 2°25.214 2.4 13 3 30.2
2009-02-06 11:46:18 51°18.552 2°25.227 2.6 13 2 29
2009-02-06 11:47:18 51°18.768 2°25.249 5 13 5 27.1
2009-02-06 11:48:18 51°18.983 2°25.269 3.1 12.8 1 26.7
2009-02-06 11:49:18 51°19.197 2°25.285 4.6 13 2 25.4
2009-02-06 11:50:18 51°19.413 2°25.303 4.6 13 2 25.7
2009-02-06 11:51:18 51°19.627 2°25.315 0.9 12.9 1 28.5
2009-02-06 11:52:18 51°19.842 2°25.344 8.4 13 8 32.1
2009-02-06 11:53:18 51°20.055 2°25.406 11.6 13 11 31
2009-02-06 11:54:18 51°20.268 2°25.47 12.2 13.1 12 35.4
2009-02-06 11:55:18 51°20.481 2°25.536 9.8 13.1 11 35.7
2009-02-06 11:56:18 51°20.695 2°25.59 7.5 13 6 36.7
2009-02-06 11:57:18 51°20.91 2°25.605 359.9 12.9 -999 36.6
2009-02-06 11:58:18 51°21.125 2°25.593 358.2 12.9 -999 36.8
2009-02-06 11:59:18 51°21.342 2°25.594 0.7 13 -999 36.5
2009-02-06 12:00:18 51°21.556 2°25.581 358.2 13 359 34.4
2009-02-06 12:01:18 51°21.772 2°25.575 358.8 13 359 33.2
2009-02-06 12:02:18 51°21.988 2°25.577 0.5 13 1 33.7
2009-02-06 12:03:18 51°22.203 2°25.574 0.3 13 -999 30.2
2009-02-06 12:04:18 51°22.419 2°25.566 357.6 13 358 25.7
2009-02-06 12:05:18 51°22.636 2°25.56 359.4 13 359 20.4
2009-02-06 12:06:18 51°22.853 2°25.563 1.5 13.1 2 23.8
2009-02-06 12:07:18 51°23.072 2°25.569 0.6 13.2 1 28.9
2009-02-06 12:08:18 51°23.291 2°25.574 5.1 13.2 9 32.8
2009-02-06 12:09:18 51°23.492 2°25.713 33.2 13.3 31 33.8
2009-02-06 12:10:18 51°23.688 2°25.878 26.6 13.3 24 33.5
2009-02-06 12:11:18 51°23.889 2°26.03 26.7 13.4 26 33.5
2009-02-06 12:12:18 51°24.09 2°26.182 26.2 13.4 25 33.2
2009-02-06 12:13:18 51°24.294 2°26.326 24.2 13.3 22 33
2009-02-06 12:14:18 51°24.5 2°26.462 23.7 13.4 22 33.6
2009-02-06 12:15:18 51°24.704 2°26.598 25.4 13.3 22 33.8
2009-02-06 12:16:18 51°24.909 2°26.732 23.8 13.3 22 34.1
2009-02-06 12:17:18 51°25.112 2°26.87 24.9 13.2 24 34.5
2009-02-06 12:18:18 51°25.311 2°27.011 25.5 12.8 23 34.8
2009-02-06 12:19:18 51°25.506 2°27.143 23.8 12.7 21 35.6
2009-02-06 12:20:18 51°25.709 2°27.198 355.7 12.7 354 34.7
2009-02-06 12:21:18 51°25.915 2°27.114 342.5 12.9 344 35.3
2009-02-06 12:22:18 51°26.1 2°26.958 321.1 12.5 321 34.9
2009-02-06 12:23:18 51°26.24 2°26.722 301.6 12.1 303 34.3
2009-02-06 12:24:18 51°26.333 2°26.435 293.6 12.2 296 35.6
2009-02-06 12:25:18 51°26.437 2°26.155 301.5 12.3 305 27.8
2009-02-06 12:26:18 51°26.557 2°25.887 303.7 12.4 305 26.6
2009-02-06 12:27:18 51°26.669 2°25.611 298.2 12.2 299 34.5
2009-02-06 12:28:18 51°26.767 2°25.325 297.5 12.4 302 35
2009-02-06 12:29:18 51°26.873 2°25.044 298.4 12.3 301 35.4
2009-02-06 12:30:18 51°26.978 2°24.764 299.1 12.2 300 35.7
2009-02-06 12:31:18 51°27.083 2°24.485 298.5 12.3 301 35.7
2009-02-06 12:32:18 51°27.186 2°24.202 297.8 12.2 299 34.9
2009-02-06 12:33:18 51°27.281 2°23.916 296.6 12.2 298 31.1
2009-02-06 12:34:18 51°27.379 2°23.631 297.1 12.2 300 22.6
2009-02-06 12:35:18 51°27.48 2°23.349 298.9 12.3 300 21.6
2009-02-06 12:36:18 51°27.582 2°23.068 298.6 12.3 298 27.6
2009-02-06 12:37:18 51°27.684 2°22.785 297.1 12.2 301 28.2
2009-02-06 12:38:18 51°27.788 2°22.505 299.3 12.4 302 24.2
2009-02-06 12:39:18 51°27.896 2°22.224 298.3 12.4 301 25
2009-02-06 12:40:18 51°27.999 2°21.94 298.8 12.3 299 27.7
2009-02-06 12:41:18 51°28.103 2°21.656 298.1 12.4 301 29.2
2009-02-06 12:42:18 51°28.204 2°21.37 297.2 12.2 297 31.7
2009-02-06 12:43:18 51°28.292 2°21.076 293.5 12.3 296 33.7
2009-02-06 12:44:18 51°28.381 2°20.782 295.8 12.3 296 35.6
2009-02-06 12:45:18 51°28.472 2°20.489 294.2 12.2 294 35.5
2009-02-06 12:46:18 51°28.559 2°20.195 295.2 12.2 296 36
2009-02-06 12:47:18 51°28.649 2°19.903 294.2 12.2 296 37.8
2009-02-06 12:48:18 51°28.736 2°19.609 293.6 12.2 296 38
2009-02-06 12:49:18 51°28.819 2°19.353 297.2 8.7 299 36.9
2009-02-06 12:50:18 51°28.881 2°19.169 294.7 7.4 299 36.7
2009-02-06 12:51:18 51°28.941 2°18.99 293.8 7.7 298 37.4
2009-02-06 12:52:18 51°28.997 2°18.806 289.5 7.6 293 34.9
2009-02-06 12:53:18 51°29.039 2°18.618 282.9 7 288 35.4
2009-02-06 12:54:18 51°29.073 2°18.472 283.4 5.1 295 34.4
2009-02-06 12:55:18 51°29.103 2°18.367 285.1 3.8 296 36.8
2009-02-06 12:56:18 51°29.125 2°18.298 277.5 2.3 305 29.9
2009-02-06 12:57:18 51°29.14 2°18.259 265.2 1.4 313 34.7
2009-02-06 12:58:18 51°29.156 2°18.254 261.5 1.4 31 35
2009-02-06 12:59:18 51°29.171 2°18.289 286.3 1.6 65 29.7
2009-02-06 13:00:18 51°29.182 2°18.321 297.8 1.1 64 31.1
2009-02-06 13:01:18 51°29.198 2°18.334 312.1 2.2 336 32.6
2009-02-06 13:02:18 51°29.213 2°18.267 246.9 3.1 253 31.9
2009-02-06 13:03:18 51°29.184 2°18.231 186.4 1.7 181 31.4
2009-02-06 13:04:18 51°29.158 2°18.244 166.3 1.4 156 34.8
2009-02-06 13:05:18 51°29.138 2°18.263 157.3 1.1 135 34.6
2009-02-06 13:06:18 51°29.137 2°18.276 162.4 0.6 83 34.5
2009-02-06 13:07:18 51°29.127 2°18.307 139.6 1.2 114 28.2
2009-02-06 13:08:18 51°29.128 2°18.332 136 1 71 31.9
2009-02-06 13:09:18 51°29.136 2°18.354 129.2 0.8 53 32.3
2009-02-06 13:10:18 51°29.147 2°18.372 126.1 1 39 35.2
2009-02-06 13:11:18 51°29.161 2°18.385 123 1 30 32.6
2009-02-06 13:12:18 51°29.175 2°18.396 117.8 1.1 21 32.7
2009-02-06 13:13:18 51°29.191 2°18.405 109.6 1.1 16 33.6
2009-02-06 13:14:18 51°29.203 2°18.428 109.8 2.5 100 34.1
2009-02-06 13:15:18 51°29.157 2°18.446 200.4 3.4 214 33.5
2009-02-06 13:16:18 51°29.143 2°18.382 252 2 270 35.3
2009-02-06 13:17:18 51°29.144 2°18.336 241.2 1.4 273 28.7
2009-02-06 13:18:18 51°29.146 2°18.305 236.9 1.4 269 31.2
2009-02-06 13:19:18 51°29.137 2°18.277 203.4 0.8 244 34.4
2009-02-06 13:20:18 51°29.133 2°18.263 205.1 0.5 267 34
2009-02-06 13:21:18 51°29.135 2°18.252 208.5 0.4 302 33.8
2009-02-06 13:22:18 51°29.134 2°18.241 198.5 0.8 215 33.6
2009-02-06 13:23:18 51°29.116 2°18.246 154.5 1.6 137 33.1
2009-02-06 13:24:18 51°29.108 2°18.281 121.2 1.3 92 31.9
2009-02-06 13:25:18 51°29.111 2°18.31 115.7 1.1 68 36.5
2009-02-06 13:26:18 51°29.12 2°18.328 115.7 0.9 22 34.8
2009-02-06 13:27:18 51°29.134 2°18.33 110.6 0.9 7 29.6
2009-02-06 13:28:18 51°29.151 2°18.333 96.1 1.1 6 27.9
2009-02-06 13:29:18 51°29.167 2°18.369 83.1 3.3 69 32.3
2009-02-06 13:30:18 51°29.174 2°18.447 106.9 2.7 98 33.5
2009-02-06 13:31:18 51°29.147 2°18.497 162.3 2.3 163 33.9
2009-02-06 13:32:18 51°29.115 2°18.477 220.2 2.3 241 34.7
2009-02-06 13:33:18 51°29.11 2°18.425 252.9 1.7 269 30.9
2009-02-06 13:34:18 51°29.11 2°18.383 241.5 1.3 272 34.5
2009-02-06 13:35:18 51°29.113 2°18.354 242.7 1 285 36.2
2009-02-06 13:36:18 51°29.119 2°18.331 247 0.8 294 34.6
2009-02-06 13:37:18 51°29.127 2°18.312 251.3 0.8 311 25.2
2009-02-06 13:38:18 51°29.138 2°18.297 253.9 0.8 321 32
2009-02-06 13:39:18 51°29.148 2°18.284 256 0.7 326 34.3
2009-02-06 13:40:18 51°29.158 2°18.271 255.6 0.9 308 34.4
2009-02-06 13:41:18 51°29.162 2°18.246 235.8 1.1 274 34.7
2009-02-06 13:42:18 51°29.159 2°18.217 217.9 1.1 247 33.7
2009-02-06 13:43:18 51°29.149 2°18.195 199.2 1 219 32.9
2009-02-06 13:44:18 51°29.138 2°18.181 185.2 0.9 212 32.5
2009-02-06 13:45:18 51°29.121 2°18.173 181.4 1.2 200 31.9
2009-02-06 13:46:18 51°29.1 2°18.166 185.4 1.5 189 30.8
2009-02-06 13:47:18 51°29.076 2°18.162 175.3 1.4 177 30.4
2009-02-06 13:48:18 51°29.06 2°18.178 137.9 1.1 130 30.5
2009-02-06 13:49:18 51°29.058 2°18.203 112.6 0.9 79 31.1
2009-02-06 13:50:18 51°29.065 2°18.222 106.2 0.6 63 31.6
2009-02-06 13:51:18 51°29.074 2°18.237 105.6 0.8 43 31.9
2009-02-06 13:52:18 51°29.082 2°18.251 112.3 0.7 55 31.5
2009-02-06 13:53:18 51°29.084 2°18.271 128.7 0.8 104 32.1
2009-02-06 13:54:18 51°29.078 2°18.288 153.4 0.8 147 33.3
2009-02-06 13:55:18 51°29.054 2°18.303 163.1 1.9 155 33.2
2009-02-06 13:56:18 51°29.036 2°18.343 109.7 2 97 34.5
2009-02-06 13:57:18 51°29.05 2°18.391 65.6 1.8 43 36
2009-02-06 13:58:18 51°29.069 2°18.419 67.3 1.4 40 36.2
2009-02-06 13:59:18 51°29.084 2°18.439 76.5 1 37 34.6
2009-02-06 14:00:18 51°29.096 2°18.452 84.1 0.8 27 30.5
2009-02-06 14:01:18 51°29.107 2°18.46 89.2 0.5 23 32.7
2009-02-06 14:02:18 51°29.117 2°18.465 94.2 0.5 14 34.3
2009-02-06 14:03:18 51°29.128 2°18.468 95.8 0.8 5 34.5
2009-02-06 14:04:18 51°29.138 2°18.468 97.1 0.8 -999 33
2009-02-06 14:05:18 51°29.149 2°18.467 94.2 0.6 352 33.3
2009-02-06 14:06:18 51°29.16 2°18.462 89.3 0.6 343 33.9
2009-02-06 14:07:18 51°29.172 2°18.457 79.7 0.8 341 34
2009-02-06 14:08:18 51°29.183 2°18.45 71.7 0.8 336 34.2
2009-02-06 14:09:18 51°29.193 2°18.442 64.9 0.6 330 34.1
2009-02-06 14:10:18 51°29.202 2°18.432 59.8 0.8 329 34.1
2009-02-06 14:11:18 51°29.211 2°18.423 57 0.8 327 33.9
2009-02-06 14:12:18 51°29.221 2°18.414 54.4 0.6 325 33.3
2009-02-06 14:13:18 51°29.229 2°18.405 54 0.7 328 32.7
2009-02-06 14:14:18 51°29.238 2°18.395 54.5 0.6 324 31.7
2009-02-06 14:15:18 51°29.247 2°18.384 53.6 0.8 324 31.2
2009-02-06 14:16:18 51°29.255 2°18.374 54 0.7 322 30.6
2009-02-06 14:17:18 51°29.263 2°18.363 54.8 0.7 317 29.9
2009-02-06 14:18:18 51°29.27 2°18.351 54.9 0.7 320 30
2009-02-06 14:19:18 51°29.278 2°18.34 55 0.7 315 30.2
2009-02-06 14:20:18 51°29.286 2°18.328 53.3 0.7 312 30.9
2009-02-06 14:21:18 51°29.293 2°18.315 52 0.5 308 31.4
2009-02-06 14:22:18 51°29.3 2°18.302 50.2 0.6 309 31.2
2009-02-06 14:23:18 51°29.307 2°18.289 47.4 0.5 307 30.8
2009-02-06 14:24:18 51°29.313 2°18.276 45.7 0.7 311 31.2
2009-02-06 14:25:18 51°29.32 2°18.265 48.2 0.6 329 29.7
2009-02-06 14:26:18 51°29.33 2°18.265 67.2 0.6 21 30.3
2009-02-06 14:27:19 51°29.338 2°18.277 86.7 0.6 65 30.5
2009-02-06 14:28:18 51°29.342 2°18.29 100.7 0.4 71 30.9
2009-02-06 14:29:19 51°29.346 2°18.297 101.2 0.2 51 30.5
2009-02-06 14:30:18 51°29.351 2°18.295 103 0.6 303 29.5
2009-02-06 14:31:19 51°29.36 2°18.264 97.9 1.5 290 27.9
2009-02-06 14:32:18 51°29.366 2°18.232 84.1 1.1 279 27.5
2009-02-06 14:33:19 51°29.369 2°18.242 102.7 1.7 100 26.4
2009-02-06 14:34:18 51°29.362 2°18.269 135.2 0.7 336 27.7
2009-02-06 14:35:18 51°29.374 2°18.252 136.2 0.5 151 24.9
2009-02-06 14:36:19 51°29.345 2°18.263 177.9 1.9 181 30
2009-02-06 14:37:18 51°29.319 2°18.252 183 1.5 196 30.1
2009-02-06 14:38:19 51°29.298 2°18.244 169.8 1.1 190 30.6
2009-02-06 14:39:18 51°29.282 2°18.238 166.2 0.9 198 31.1
2009-02-06 14:40:19 51°29.269 2°18.233 159.9 0.8 204 30.4
2009-02-06 14:41:18 51°29.257 2°18.232 151.6 1.2 168 30.8
2009-02-06 14:42:19 51°29.226 2°18.248 165.4 1.9 176 30.5
2009-02-06 14:43:19 51°29.2 2°18.244 176.5 1.4 197 29.4
2009-02-06 14:44:18 51°29.176 2°18.243 155.7 1.6 166 32.6
2009-02-06 14:45:19 51°29.157 2°18.258 131.5 1.1 153 34.8
2009-02-06 14:46:18 51°29.145 2°18.273 133.1 0.9 147 33.8
2009-02-06 14:47:19 51°29.132 2°18.282 142.2 0.8 159 33.5
2009-02-06 14:48:18 51°29.122 2°18.287 136.6 0.4 142 32.3
2009-02-06 14:49:18 51°29.114 2°18.292 122.4 0.5 141 34.4
2009-02-06 14:50:19 51°29.109 2°18.297 108.7 0.2 85 33.8
2009-02-06 14:51:18 51°29.107 2°18.3 107.4 0.1 160 34.3
2009-02-06 14:52:19 51°29.105 2°18.299 108.6 0.1 246 33.4
2009-02-06 14:53:18 51°29.103 2°18.295 109.9 0.2 239 32.6
2009-02-06 14:54:19 51°29.103 2°18.289 110.7 0.3 248 31.9
2009-02-06 14:55:18 51°29.103 2°18.282 111.4 0.3 266 31.2
2009-02-06 14:56:19 51°29.102 2°18.281 103.9 0.7 123 31.1
2009-02-06 14:57:18 51°29.11 2°18.312 55.5 1.8 46 36
2009-02-06 14:58:19 51°29.131 2°18.327 32.1 1.1 12 31.6
2009-02-06 14:59:19 51°29.147 2°18.33 33.2 1 -999 27.4
2009-02-06 15:00:19 51°29.16 2°18.33 38.2 0.7 351 30.3
2009-02-06 15:01:19 51°29.169 2°18.328 47.7 0.5 346 28.7
2009-02-06 15:02:18 51°29.173 2°18.324 57.6 0.4 321 30.1
2009-02-06 15:03:19 51°29.176 2°18.316 64.6 0.4 299 30.8
2009-02-06 15:04:18 51°29.176 2°18.308 68.9 0.3 268 30.1
2009-02-06 15:05:19 51°29.176 2°18.299 75 0.4 241 29.6
2009-02-06 15:06:18 51°29.176 2°18.292 78.9 0.3 135 29.4
2009-02-06 15:07:18 51°29.174 2°18.349 93.8 4.1 103 31.6
2009-02-06 15:08:18 51°29.109 2°18.467 146.8 7.5 142 33.5
2009-02-06 15:09:18 51°29.007 2°18.676 118.9 11.5 123 35.1
2009-02-06 15:10:18 51°28.903 2°18.941 118.4 11.8 121 37.1
2009-02-06 15:11:18 51°28.793 2°19.204 124.7 12 131 35.9
2009-02-06 15:12:18 51°28.645 2°19.416 138.1 12.1 144 38
2009-02-06 15:13:18 51°28.48 2°19.6 140.6 12.1 147 34.4
2009-02-06 15:14:18 51°28.313 2°19.781 141.2 12.1 145 37
2009-02-06 15:15:18 51°28.15 2°19.967 136.7 12 140 35
2009-02-06 15:16:18 51°28.013 2°20.193 127.9 11.8 132 35.5
2009-02-06 15:17:18 51°27.88 2°20.427 129 11.9 133 31.6
2009-02-06 15:18:18 51°27.75 2°20.664 127.6 11.9 133 27.1
2009-02-06 15:19:18 51°27.614 2°20.897 130.3 12 131 27.6
2009-02-06 15:20:18 51°27.475 2°21.126 129.9 12 134 23.5
2009-02-06 15:21:18 51°27.34 2°21.36 128.4 11.9 136 22.9
2009-02-06 15:22:18 51°27.201 2°21.59 130.1 12 135 25.4
2009-02-06 15:23:18 51°27.065 2°21.823 127.8 11.9 132 32
2009-02-06 15:24:18 51°26.928 2°22.055 130.4 12.1 135 33.9
2009-02-06 15:25:18 51°26.787 2°22.28 128.4 11.9 135 29.7
2009-02-06 15:26:18 51°26.646 2°22.503 130.3 11.9 135 23.7
2009-02-06 15:27:18 51°26.51 2°22.728 130.1 11.9 135 17.7
2009-02-06 15:28:18 51°26.377 2°22.957 127.1 11.7 133 23.2
2009-02-06 15:29:18 51°26.238 2°23.182 130.9 12 135 34.2
2009-02-06 15:30:18 51°26.09 2°23.399 132.9 12.2 138 34.4
2009-02-06 15:31:18 51°25.942 2°23.616 133.1 12.2 141 34.2
2009-02-06 15:32:18 51°25.791 2°23.83 134.1 12.1 139 34.3
2009-02-06 15:33:18 51°25.641 2°24.043 133.1 12.1 138 33.8
2009-02-06 15:34:18 51°25.494 2°24.261 130.3 12 135 32.9
2009-02-06 15:35:18 51°25.352 2°24.483 130.9 11.9 137 29.8
2009-02-06 15:36:18 51°25.203 2°24.698 133.9 12 139 30.9
2009-02-06 15:37:18 51°25.058 2°24.917 129.1 11.9 134 32.5
2009-02-06 15:38:18 51°24.923 2°25.15 127.1 11.9 132 34.2
2009-02-06 15:39:18 51°24.788 2°25.385 127.1 11.9 130 33.9
2009-02-06 15:40:18 51°24.658 2°25.624 127.1 12.1 134 35.1
2009-02-06 15:41:18 51°24.523 2°25.858 127.3 11.9 135 33.4
2009-02-06 15:42:18 51°24.391 2°26.094 125.3 11.9 132 32.6
2009-02-06 15:43:18 51°24.257 2°26.328 127 11.9 134 32.3
2009-02-06 15:44:18 51°24.119 2°26.556 129.5 11.9 134 30.9
2009-02-06 15:45:18 51°23.984 2°26.787 127.3 11.8 131 23.2
2009-02-06 15:46:18 51°23.857 2°27.015 126.6 11.2 132 12.2
2009-02-06 15:47:19 51°23.724 2°27.24 125.4 11.6 131 21.7
2009-02-06 15:48:18 51°23.593 2°27.465 128.2 11.9 134 31.7
2009-02-06 15:49:18 51°23.458 2°27.695 124.7 11.8 131 32.6
2009-02-06 15:50:18 51°23.331 2°27.937 124.3 11.8 129 33.3
2009-02-06 15:51:18 51°23.198 2°28.172 126.7 12 132 33.5
2009-02-06 15:52:18 51°23.064 2°28.405 125.7 11.9 129 33.9
2009-02-06 15:53:18 51°22.938 2°28.646 124 11.9 131 33.6
2009-02-06 15:54:18 51°22.807 2°28.881 124.8 11.9 131 34.4
2009-02-06 15:55:18 51°22.676 2°29.115 123.8 11.8 132 33.1
2009-02-06 15:56:18 51°22.549 2°29.352 124.8 11.8 133 32.1
2009-02-06 15:57:18 51°22.418 2°29.582 124.9 11.6 131 32.1
2009-02-06 15:58:18 51°22.287 2°29.81 126.6 11.7 134 31.3
2009-02-06 15:59:18 51°22.153 2°30.032 126.4 11.6 133 31.3
2009-02-06 16:00:18 51°22.021 2°30.254 126.8 11.6 132 31.6
2009-02-06 16:01:19 51°21.897 2°30.489 123.5 11.5 130 31.8
2009-02-06 16:02:18 51°21.773 2°30.713 126.2 11.5 133 32.2
2009-02-06 16:03:19 51°21.638 2°30.939 126.6 11.6 135 24.1
2009-02-06 16:04:18 51°21.51 2°31.158 125.7 11.4 132 21.2
2009-02-06 16:05:19 51°21.388 2°31.398 117.2 11.3 124 15.7
2009-02-06 16:06:18 51°21.299 2°31.652 112.5 11.3 118 13.4
2009-02-06 16:07:18 51°21.21 2°31.914 113 11.3 119 14.4
2009-02-06 16:08:18 51°21.099 2°32.162 124.3 11.7 136 18.1
2009-02-06 16:09:18 51°20.944 2°32.361 137.1 12.2 143 26.6
2009-02-06 16:10:18 51°20.786 2°32.559 133.1 12 140 29.9
2009-02-06 16:11:18 51°20.648 2°32.785 121.7 11.7 130 29.5
2009-02-06 16:12:18 51°20.533 2°33.038 119.3 11.7 126 30.3
2009-02-06 16:13:18 51°20.417 2°33.289 120 11.8 124 29.9
2009-02-06 16:14:18 51°20.3 2°33.54 119.3 11.8 127 30.1
2009-02-06 16:15:18 51°20.187 2°33.794 116.9 11.7 125 31.9
2009-02-06 16:16:18 51°20.074 2°34.047 118 11.6 125 30.3
2009-02-06 16:17:18 51°19.964 2°34.3 119.8 11.6 129 28.7
2009-02-06 16:18:18 51°19.852 2°34.549 120.9 11.6 125 25.6
2009-02-06 16:19:19 51°19.741 2°34.803 118.2 11.3 124 14.2
2009-02-06 16:20:18 51°19.638 2°35.048 119.3 11.4 125 14.7
2009-02-06 16:21:19 51°19.52 2°35.297 120.7 11.5 127 18.7
2009-02-06 16:22:18 51°19.412 2°35.545 119.3 11.6 125 19.6
2009-02-06 16:23:18 51°19.302 2°35.798 117.8 11.7 126 21.5
2009-02-06 16:24:19 51°19.186 2°36.051 119.3 11.6 126 20.7
2009-02-06 16:25:18 51°19.084 2°36.305 116.2 11.5 122 18.5
2009-02-06 16:26:19 51°18.985 2°36.572 115.9 11.5 121 21.1
2009-02-06 16:27:18 51°18.887 2°36.828 115.6 11.5 121 20
2009-02-06 16:28:18 51°18.789 2°37.087 114.6 11.4 122 18.3
2009-02-06 16:29:18 51°18.689 2°37.348 115.2 11.6 121 20.1
2009-02-06 16:30:18 51°18.595 2°37.622 112.4 11.8 121 22.6
2009-02-06 16:31:18 51°18.498 2°37.895 114.5 11.8 120 24
2009-02-06 16:32:18 51°18.393 2°38.164 116.1 12 119 26
2009-02-06 16:33:18 51°18.306 2°38.447 107.8 11.9 116 26.5
2009-02-06 16:34:18 51°18.218 2°38.73 109.9 11.9 116 26.2
2009-02-06 16:35:19 51°18.134 2°39.021 111.2 11.8 116 26.3
2009-02-06 16:36:18 51°18.048 2°39.299 111.3 11.8 117 26.5
2009-02-06 16:37:19 51°17.963 2°39.586 108.8 11.6 114 24.2
2009-02-06 16:38:18 51°17.886 2°39.861 110.8 11.4 116 20.1
2009-02-06 16:39:19 51°17.808 2°40.143 109.2 11.3 113 15.2
2009-02-06 16:40:18 51°17.723 2°40.412 110.3 11.5 117 13.8
2009-02-06 16:41:18 51°17.644 2°40.689 108.8 11.6 113 18
2009-02-06 16:42:19 51°17.563 2°40.972 109.1 11.5 115 21.7
2009-02-06 16:43:18 51°17.481 2°41.246 111.1 11.7 114 22.9
2009-02-06 16:44:19 51°17.391 2°41.527 111.2 11.8 116 23.5
2009-02-06 16:45:18 51°17.312 2°41.803 109.1 11.7 115 23.2
2009-02-06 16:46:18 51°17.233 2°42.087 108.7 11.7 112 21.8
2009-02-06 16:47:18 51°17.155 2°42.374 108.5 11.6 114 14.2
2009-02-06 16:48:18 51°17.084 2°42.654 107.4 11.3 113 9.2
2009-02-06 16:49:18 51°17.01 2°42.931 107.3 11.4 111 10.2
2009-02-06 16:50:18 51°16.932 2°43.211 109.8 11.8 116 12.5
2009-02-06 16:51:19 51°16.849 2°43.497 108.4 11.7 116 13.5
2009-02-06 16:52:18 51°16.77 2°43.777 106.2 11.7 111 14.2
2009-02-06 16:53:19 51°16.698 2°44.073 104.9 11.9 112 14.4
2009-02-06 16:54:18 51°16.635 2°44.363 103.2 11.8 108 13.7
2009-02-06 16:55:19 51°16.567 2°44.662 105.6 12 110 11.1
2009-02-06 16:56:18 51°16.496 2°44.951 104.1 11.9 111 10.7
2009-02-06 16:57:18 51°16.429 2°45.251 104.6 12 110 10.7
2009-02-06 16:58:18 51°16.365 2°45.553 104.5 12.2 108 10.3
2009-02-06 16:59:18 51°16.308 2°45.857 100.9 11.9 104 9.5
2009-02-06 17:00:19 51°16.259 2°46.168 100.4 11.8 105 9.9
2009-02-06 17:01:18 51°16.206 2°46.467 102.4 12 107 10.8
2009-02-06 17:02:18 51°16.15 2°46.771 102.3 11.9 107 12.9
2009-02-06 17:03:18 51°16.091 2°47.073 105.7 12 108 14.6
2009-02-06 17:04:18 51°16.029 2°47.375 103.2 12 103 15.9
2009-02-06 17:05:18 51°15.98 2°47.68 99 11.9 103 15.5
2009-02-06 17:06:18 51°15.934 2°47.983 99 11.7 103 14.9
2009-02-06 17:07:18 51°15.887 2°48.282 99.7 11.6 103 13.6
2009-02-06 17:08:18 51°15.841 2°48.582 100 11.8 104 11.9
2009-02-06 17:09:19 51°15.799 2°48.888 96 11.6 101 10.8
2009-02-06 17:10:18 51°15.764 2°49.188 96.9 11.8 101 10.1
2009-02-06 17:11:19 51°15.726 2°49.499 97 11.8 103 10.7
2009-02-06 17:12:18 51°15.682 2°49.8 100.2 11.8 104 12.4
2009-02-06 17:13:19 51°15.633 2°50.111 101.7 11.7 105 12.7
2009-02-06 17:14:18 51°15.579 2°50.408 103.3 11.7 109 12.5
2009-02-06 17:15:19 51°15.513 2°50.707 105.2 11.6 110 12.5
2009-02-06 17:16:19 51°15.447 2°50.997 103.9 11.6 110 12.5
2009-02-06 17:17:18 51°15.387 2°51.279 104.5 11.3 109 12.3
2009-02-06 17:18:19 51°15.329 2°51.57 102.8 11.3 108 11.9
2009-02-06 17:19:18 51°15.269 2°51.851 105.5 11.6 110 11.4
2009-02-06 17:20:19 51°15.199 2°52.139 105 11.4 109 10.8
2009-02-06 17:21:18 51°15.132 2°52.42 105.1 11.5 109 10.4
2009-02-06 17:22:18 51°15.044 2°52.695 115.7 11.7 119 10.2
2009-02-06 17:23:19 51°14.956 2°52.975 108.6 11.7 112 10
2009-02-06 17:24:18 51°14.885 2°53.258 103.2 11.6 108 9.7
2009-02-06 17:25:19 51°14.837 2°53.559 99.7 11.6 104 10.1
2009-02-06 17:26:18 51°14.798 2°53.855 97.3 11.4 99 9.6
2009-02-06 17:27:19 51°14.746 2°54.144 105.3 11.2 112 9.7
2009-02-06 17:28:18 51°14.66 2°54.406 116.8 11.5 121 10
2009-02-06 17:29:19 51°14.548 2°54.657 122.4 11.4 129 10.1
2009-02-06 17:30:18 51°14.433 2°54.892 122.2 11.4 124 10.4
2009-02-06 17:31:19 51°14.32 2°55.146 124.7 11.8 125 10
2009-02-06 17:32:19 51°14.185 2°55.353 144.2 10.3 147 10.1
2009-02-06 17:33:19 51°14.042 2°55.471 154.1 9.5 155 9.8
2009-02-06 17:34:19 51°13.91 2°55.567 155.2 7.5 156 -999
2009-02-06 17:35:18 51°13.805 2°55.648 150 6.9 148 9.8
2009-02-06 17:36:19 51°13.723 2°55.769 130.4 6.2 131 11.6
2009-02-06 17:37:18 51°13.674 2°55.884 115.5 4.6 112 8.5
2009-02-06 17:38:19 51°13.66 2°55.954 112 0.2 122 6.3
2009-02-06 17:39:19 51°13.66 2°55.959 119.6 0.2 76 -999